sensor_id;sensor_type;location;lat;lon;timestamp;P1;durP1;ratioP1;P2;durP2;ratioP2
13303;SDS011;6720;51.958;4.540;2022-11-21T00:01:21;30.33;;;22.03;;
13303;SDS011;6720;51.958;4.540;2022-11-21T00:03:48;32.97;;;22.00;;
13303;SDS011;6720;51.958;4.540;2022-11-21T00:06:14;33.37;;;22.93;;
13303;SDS011;6720;51.958;4.540;2022-11-21T00:08:40;32.40;;;22.93;;
13303;SDS011;6720;51.958;4.540;2022-11-21T00:11:05;33.37;;;23.07;;
13303;SDS011;6720;51.958;4.540;2022-11-21T00:13:31;28.37;;;20.77;;
13303;SDS011;6720;51.958;4.540;2022-11-21T00:16:01;28.83;;;21.37;;
13303;SDS011;6720;51.958;4.540;2022-11-21T00:18:28;29.70;;;20.13;;
13303;SDS011;6720;51.958;4.540;2022-11-21T00:20:53;28.43;;;20.67;;
13303;SDS011;6720;51.958;4.540;2022-11-21T00:23:19;28.40;;;19.53;;
13303;SDS011;6720;51.958;4.540;2022-11-21T00:25:44;28.07;;;20.60;;
13303;SDS011;6720;51.958;4.540;2022-11-21T00:28:09;26.43;;;18.50;;
13303;SDS011;6720;51.958;4.540;2022-11-21T00:30:35;25.63;;;19.23;;
13303;SDS011;6720;51.958;4.540;2022-11-21T00:33:09;27.47;;;20.37;;
13303;SDS011;6720;51.958;4.540;2022-11-21T00:35:52;24.77;;;19.13;;
13303;SDS011;6720;51.958;4.540;2022-11-21T00:38:17;27.93;;;19.43;;
13303;SDS011;6720;51.958;4.540;2022-11-21T00:40:43;26.90;;;19.07;;
13303;SDS011;6720;51.958;4.540;2022-11-21T00:43:09;25.40;;;18.30;;
13303;SDS011;6720;51.958;4.540;2022-11-21T00:45:34;23.20;;;17.57;;
13303;SDS011;6720;51.958;4.540;2022-11-21T00:47:59;26.07;;;18.93;;
13303;SDS011;6720;51.958;4.540;2022-11-21T00:50:25;24.20;;;18.27;;
13303;SDS011;6720;51.958;4.540;2022-11-21T00:52:53;25.27;;;18.40;;
13303;SDS011;6720;51.958;4.540;2022-11-21T00:55:20;25.03;;;17.50;;
13303;SDS011;6720;51.958;4.540;2022-11-21T00:57:45;22.83;;;17.73;;
13303;SDS011;6720;51.958;4.540;2022-11-21T01:00:11;25.43;;;19.60;;
13303;SDS011;6720;51.958;4.540;2022-11-21T01:02:36;33.23;;;22.87;;
13303;SDS011;6720;51.958;4.540;2022-11-21T01:05:02;26.37;;;18.63;;
13303;SDS011;6720;51.958;4.540;2022-11-21T01:07:27;24.93;;;21.00;;
13303;SDS011;6720;51.958;4.540;2022-11-21T01:09:53;29.90;;;21.17;;
13303;SDS011;6720;51.958;4.540;2022-11-21T01:12:18;30.37;;;23.37;;
13303;SDS011;6720;51.958;4.540;2022-11-21T01:14:43;31.37;;;22.33;;
13303;SDS011;6720;51.958;4.540;2022-11-21T01:17:09;30.83;;;22.77;;
13303;SDS011;6720;51.958;4.540;2022-11-21T01:19:34;33.10;;;24.03;;
13303;SDS011;6720;51.958;4.540;2022-11-21T01:22:00;30.67;;;22.53;;
13303;SDS011;6720;51.958;4.540;2022-11-21T01:24:25;31.13;;;23.60;;
13303;SDS011;6720;51.958;4.540;2022-11-21T01:26:50;36.27;;;25.07;;
13303;SDS011;6720;51.958;4.540;2022-11-21T01:29:17;33.67;;;25.23;;
13303;SDS011;6720;51.958;4.540;2022-11-21T01:31:43;31.37;;;23.47;;
13303;SDS011;6720;51.958;4.540;2022-11-21T01:34:08;32.40;;;23.53;;
13303;SDS011;6720;51.958;4.540;2022-11-21T01:36:34;31.13;;;22.57;;
13303;SDS011;6720;51.958;4.540;2022-11-21T01:39:00;35.20;;;24.53;;
13303;SDS011;6720;51.958;4.540;2022-11-21T01:41:29;33.97;;;24.83;;
13303;SDS011;6720;51.958;4.540;2022-11-21T01:44:00;40.33;;;26.60;;
13303;SDS011;6720;51.958;4.540;2022-11-21T01:46:38;37.03;;;25.87;;
13303;SDS011;6720;51.958;4.540;2022-11-21T01:51:54;42.27;;;27.43;;
13303;SDS011;6720;51.958;4.540;2022-11-21T02:02:09;48.13;;;26.20;;
13303;SDS011;6720;51.958;4.540;2022-11-21T02:04:37;50.47;;;25.90;;
13303;SDS011;6720;51.958;4.540;2022-11-21T02:07:05;41.07;;;25.13;;
13303;SDS011;6720;51.958;4.540;2022-11-21T02:09:32;50.47;;;25.47;;
13303;SDS011;6720;51.958;4.540;2022-11-21T02:12:01;67.73;;;26.27;;
13303;SDS011;6720;51.958;4.540;2022-11-21T02:14:32;48.53;;;26.07;;
13303;SDS011;6720;51.958;4.540;2022-11-21T02:16:59;43.03;;;25.93;;
13303;SDS011;6720;51.958;4.540;2022-11-21T02:20:11;74.80;;;27.17;;
13303;SDS011;6720;51.958;4.540;2022-11-21T02:23:10;106.70;;;28.77;;
13303;SDS011;6720;51.958;4.540;2022-11-21T02:25:21;89.80;;;29.80;;
13303;SDS011;6720;51.958;4.540;2022-11-21T02:27:51;61.43;;;28.57;;
13303;SDS011;6720;51.958;4.540;2022-11-21T02:30:23;153.90;;;30.37;;
13303;SDS011;6720;51.958;4.540;2022-11-21T02:32:48;61.90;;;28.37;;
13303;SDS011;6720;51.958;4.540;2022-11-21T02:35:15;170.63;;;32.10;;
13303;SDS011;6720;51.958;4.540;2022-11-21T02:37:42;131.50;;;30.80;;
13303;SDS011;6720;51.958;4.540;2022-11-21T02:40:12;70.17;;;30.73;;
13303;SDS011;6720;51.958;4.540;2022-11-21T02:42:47;53.63;;;27.60;;
13303;SDS011;6720;51.958;4.540;2022-11-21T02:45:23;51.80;;;27.20;;
13303;SDS011;6720;51.958;4.540;2022-11-21T02:47:51;44.23;;;26.83;;
13303;SDS011;6720;51.958;4.540;2022-11-21T02:50:19;49.23;;;28.07;;
13303;SDS011;6720;51.958;4.540;2022-11-21T02:52:49;53.20;;;27.67;;
13303;SDS011;6720;51.958;4.540;2022-11-21T02:55:15;50.37;;;27.40;;
13303;SDS011;6720;51.958;4.540;2022-11-21T02:57:41;42.60;;;27.27;;
13303;SDS011;6720;51.958;4.540;2022-11-21T03:00:06;43.73;;;27.57;;
13303;SDS011;6720;51.958;4.540;2022-11-21T03:02:34;48.40;;;27.93;;
13303;SDS011;6720;51.958;4.540;2022-11-21T03:05:00;56.50;;;28.40;;
13303;SDS011;6720;51.958;4.540;2022-11-21T03:07:26;112.23;;;30.20;;
13303;SDS011;6720;51.958;4.540;2022-11-21T03:09:51;49.47;;;26.40;;
13303;SDS011;6720;51.958;4.540;2022-11-21T03:12:16;51.17;;;26.73;;
13303;SDS011;6720;51.958;4.540;2022-11-21T03:14:42;97.60;;;27.13;;
13303;SDS011;6720;51.958;4.540;2022-11-21T03:17:07;162.33;;;31.73;;
13303;SDS011;6720;51.958;4.540;2022-11-21T03:19:32;72.10;;;26.23;;
13303;SDS011;6720;51.958;4.540;2022-11-21T03:21:58;118.57;;;29.60;;
13303;SDS011;6720;51.958;4.540;2022-11-21T03:24:23;157.43;;;29.83;;
13303;SDS011;6720;51.958;4.540;2022-11-21T03:26:48;83.90;;;27.60;;
13303;SDS011;6720;51.958;4.540;2022-11-21T03:29:14;210.73;;;31.87;;
13303;SDS011;6720;51.958;4.540;2022-11-21T03:31:39;86.63;;;27.17;;
13303;SDS011;6720;51.958;4.540;2022-11-21T03:34:05;104.27;;;28.37;;
13303;SDS011;6720;51.958;4.540;2022-11-21T03:36:30;197.53;;;32.83;;
13303;SDS011;6720;51.958;4.540;2022-11-21T03:38:56;51.23;;;24.83;;
13303;SDS011;6720;51.958;4.540;2022-11-21T03:41:22;153.13;;;29.53;;
13303;SDS011;6720;51.958;4.540;2022-11-21T03:44:01;73.10;;;24.73;;
13303;SDS011;6720;51.958;4.540;2022-11-21T03:46:29;83.50;;;24.47;;
13303;SDS011;6720;51.958;4.540;2022-11-21T03:48:55;95.93;;;26.40;;
13303;SDS011;6720;51.958;4.540;2022-11-21T03:51:21;66.37;;;25.77;;
13303;SDS011;6720;51.958;4.540;2022-11-21T03:53:47;80.73;;;26.23;;
13303;SDS011;6720;51.958;4.540;2022-11-21T03:56:12;244.60;;;32.57;;
13303;SDS011;6720;51.958;4.540;2022-11-21T03:58:38;90.63;;;26.20;;
13303;SDS011;6720;51.958;4.540;2022-11-21T04:01:03;118.83;;;27.40;;
13303;SDS011;6720;51.958;4.540;2022-11-21T04:03:29;231.87;;;30.70;;
13303;SDS011;6720;51.958;4.540;2022-11-21T04:05:55;246.97;;;32.80;;
13303;SDS011;6720;51.958;4.540;2022-11-21T04:08:21;177.73;;;27.40;;
13303;SDS011;6720;51.958;4.540;2022-11-21T04:10:47;171.23;;;27.33;;
13303;SDS011;6720;51.958;4.540;2022-11-21T04:13:16;96.67;;;24.93;;
13303;SDS011;6720;51.958;4.540;2022-11-21T04:15:42;112.80;;;25.47;;
13303;SDS011;6720;51.958;4.540;2022-11-21T04:18:09;208.43;;;30.80;;
13303;SDS011;6720;51.958;4.540;2022-11-21T04:20:35;111.67;;;27.33;;
13303;SDS011;6720;51.958;4.540;2022-11-21T04:23:00;140.73;;;28.07;;
13303;SDS011;6720;51.958;4.540;2022-11-21T04:25:26;96.57;;;25.50;;
13303;SDS011;6720;51.958;4.540;2022-11-21T04:27:54;144.57;;;29.37;;
13303;SDS011;6720;51.958;4.540;2022-11-21T04:30:21;178.00;;;30.63;;
13303;SDS011;6720;51.958;4.540;2022-11-21T04:32:46;124.77;;;27.57;;
13303;SDS011;6720;51.958;4.540;2022-11-21T04:35:13;118.17;;;26.03;;
13303;SDS011;6720;51.958;4.540;2022-11-21T04:37:46;78.17;;;24.37;;
13303;SDS011;6720;51.958;4.540;2022-11-21T04:40:27;71.40;;;26.33;;
13303;SDS011;6720;51.958;4.540;2022-11-21T04:42:53;183.87;;;29.83;;
13303;SDS011;6720;51.958;4.540;2022-11-21T04:45:18;54.40;;;23.07;;
13303;SDS011;6720;51.958;4.540;2022-11-21T04:47:44;47.23;;;23.83;;
13303;SDS011;6720;51.958;4.540;2022-11-21T04:50:11;41.07;;;22.47;;
13303;SDS011;6720;51.958;4.540;2022-11-21T04:52:38;50.33;;;23.57;;
13303;SDS011;6720;51.958;4.540;2022-11-21T04:55:05;84.40;;;23.30;;
13303;SDS011;6720;51.958;4.540;2022-11-21T04:57:31;68.43;;;23.40;;
13303;SDS011;6720;51.958;4.540;2022-11-21T04:59:56;65.00;;;22.73;;
13303;SDS011;6720;51.958;4.540;2022-11-21T05:02:22;99.33;;;23.57;;
13303;SDS011;6720;51.958;4.540;2022-11-21T05:04:48;94.07;;;24.57;;
13303;SDS011;6720;51.958;4.540;2022-11-21T05:07:14;132.43;;;26.73;;
13303;SDS011;6720;51.958;4.540;2022-11-21T05:09:40;43.47;;;22.97;;
13303;SDS011;6720;51.958;4.540;2022-11-21T05:12:05;53.40;;;23.33;;
13303;SDS011;6720;51.958;4.540;2022-11-21T05:14:51;67.73;;;22.73;;
13303;SDS011;6720;51.958;4.540;2022-11-21T05:17:17;73.67;;;23.80;;
13303;SDS011;6720;51.958;4.540;2022-11-21T05:19:42;61.43;;;21.10;;
13303;SDS011;6720;51.958;4.540;2022-11-21T05:22:07;42.83;;;21.27;;
13303;SDS011;6720;51.958;4.540;2022-11-21T05:24:33;47.40;;;21.37;;
13303;SDS011;6720;51.958;4.540;2022-11-21T05:26:59;51.93;;;24.07;;
13303;SDS011;6720;51.958;4.540;2022-11-21T05:29:24;46.73;;;22.13;;
13303;SDS011;6720;51.958;4.540;2022-11-21T05:31:49;69.17;;;23.17;;
13303;SDS011;6720;51.958;4.540;2022-11-21T05:34:15;49.77;;;21.67;;
13303;SDS011;6720;51.958;4.540;2022-11-21T05:36:40;70.87;;;21.53;;
13303;SDS011;6720;51.958;4.540;2022-11-21T05:39:05;58.47;;;21.70;;
13303;SDS011;6720;51.958;4.540;2022-11-21T05:41:31;114.27;;;24.27;;
13303;SDS011;6720;51.958;4.540;2022-11-21T05:43:56;88.13;;;23.17;;
13303;SDS011;6720;51.958;4.540;2022-11-21T05:46:22;66.10;;;22.17;;
13303;SDS011;6720;51.958;4.540;2022-11-21T05:48:49;81.03;;;24.27;;
13303;SDS011;6720;51.958;4.540;2022-11-21T05:51:16;61.50;;;22.27;;
13303;SDS011;6720;51.958;4.540;2022-11-21T05:53:42;55.60;;;22.87;;
13303;SDS011;6720;51.958;4.540;2022-11-21T05:56:10;60.17;;;23.90;;
13303;SDS011;6720;51.958;4.540;2022-11-21T05:58:37;81.17;;;23.77;;
13303;SDS011;6720;51.958;4.540;2022-11-21T06:01:03;43.93;;;22.87;;
13303;SDS011;6720;51.958;4.540;2022-11-21T06:03:31;38.87;;;21.57;;
13303;SDS011;6720;51.958;4.540;2022-11-21T06:05:59;45.97;;;21.70;;
13303;SDS011;6720;51.958;4.540;2022-11-21T06:08:28;87.27;;;24.43;;
13303;SDS011;6720;51.958;4.540;2022-11-21T06:10:55;40.83;;;21.57;;
13303;SDS011;6720;51.958;4.540;2022-11-21T06:13:20;74.43;;;23.83;;
13303;SDS011;6720;51.958;4.540;2022-11-21T06:15:50;84.57;;;25.80;;
13303;SDS011;6720;51.958;4.540;2022-11-21T06:18:17;65.47;;;24.77;;
13303;SDS011;6720;51.958;4.540;2022-11-21T06:20:42;38.83;;;22.40;;
13303;SDS011;6720;51.958;4.540;2022-11-21T06:23:08;59.90;;;24.17;;
13303;SDS011;6720;51.958;4.540;2022-11-21T06:25:34;38.43;;;22.87;;
13303;SDS011;6720;51.958;4.540;2022-11-21T06:28:00;74.47;;;23.47;;
13303;SDS011;6720;51.958;4.540;2022-11-21T06:30:25;53.70;;;23.97;;
13303;SDS011;6720;51.958;4.540;2022-11-21T06:32:50;43.63;;;22.97;;
13303;SDS011;6720;51.958;4.540;2022-11-21T06:35:16;41.50;;;23.90;;
13303;SDS011;6720;51.958;4.540;2022-11-21T06:37:41;35.13;;;23.10;;
13303;SDS011;6720;51.958;4.540;2022-11-21T06:40:07;40.80;;;25.23;;
13303;SDS011;6720;51.958;4.540;2022-11-21T06:42:33;49.33;;;24.10;;
13303;SDS011;6720;51.958;4.540;2022-11-21T06:44:58;41.93;;;24.40;;
13303;SDS011;6720;51.958;4.540;2022-11-21T06:47:23;40.27;;;23.30;;
13303;SDS011;6720;51.958;4.540;2022-11-21T06:49:49;38.00;;;23.87;;
13303;SDS011;6720;51.958;4.540;2022-11-21T06:52:16;35.20;;;23.33;;
13303;SDS011;6720;51.958;4.540;2022-11-21T06:54:50;36.27;;;23.90;;
13303;SDS011;6720;51.958;4.540;2022-11-21T06:57:15;33.03;;;23.03;;
13303;SDS011;6720;51.958;4.540;2022-11-21T06:59:41;35.83;;;24.03;;
13303;SDS011;6720;51.958;4.540;2022-11-21T07:02:09;34.80;;;22.53;;
13303;SDS011;6720;51.958;4.540;2022-11-21T07:04:36;45.50;;;24.07;;
13303;SDS011;6720;51.958;4.540;2022-11-21T07:07:02;34.87;;;22.20;;
13303;SDS011;6720;51.958;4.540;2022-11-21T07:09:27;44.10;;;23.93;;
13303;SDS011;6720;51.958;4.540;2022-11-21T07:11:53;40.70;;;23.03;;
13303;SDS011;6720;51.958;4.540;2022-11-21T07:14:18;40.27;;;24.87;;
13303;SDS011;6720;51.958;4.540;2022-11-21T07:16:44;35.83;;;24.23;;
13303;SDS011;6720;51.958;4.540;2022-11-21T07:19:09;35.60;;;23.97;;
13303;SDS011;6720;51.958;4.540;2022-11-21T07:21:35;38.30;;;23.90;;
13303;SDS011;6720;51.958;4.540;2022-11-21T07:24:01;38.27;;;22.60;;
13303;SDS011;6720;51.958;4.540;2022-11-21T07:26:26;40.47;;;23.63;;
13303;SDS011;6720;51.958;4.540;2022-11-21T07:28:52;42.87;;;23.70;;
13303;SDS011;6720;51.958;4.540;2022-11-21T07:31:17;38.50;;;23.60;;
13303;SDS011;6720;51.958;4.540;2022-11-21T07:33:42;35.57;;;22.73;;
13303;SDS011;6720;51.958;4.540;2022-11-21T07:36:08;35.10;;;21.67;;
13303;SDS011;6720;51.958;4.540;2022-11-21T07:38:33;44.50;;;23.30;;
13303;SDS011;6720;51.958;4.540;2022-11-21T07:40:59;38.17;;;23.00;;
13303;SDS011;6720;51.958;4.540;2022-11-21T07:43:24;36.23;;;21.80;;
13303;SDS011;6720;51.958;4.540;2022-11-21T07:45:49;33.50;;;21.67;;
13303;SDS011;6720;51.958;4.540;2022-11-21T07:48:15;35.87;;;21.63;;
13303;SDS011;6720;51.958;4.540;2022-11-21T07:50:40;31.90;;;21.00;;
13303;SDS011;6720;51.958;4.540;2022-11-21T07:53:06;33.43;;;21.27;;
13303;SDS011;6720;51.958;4.540;2022-11-21T07:55:33;29.53;;;20.50;;
13303;SDS011;6720;51.958;4.540;2022-11-21T07:57:59;32.20;;;21.73;;
13303;SDS011;6720;51.958;4.540;2022-11-21T08:00:26;35.27;;;22.60;;
13303;SDS011;6720;51.958;4.540;2022-11-21T08:02:53;36.57;;;22.07;;
13303;SDS011;6720;51.958;4.540;2022-11-21T08:05:18;32.90;;;21.83;;
13303;SDS011;6720;51.958;4.540;2022-11-21T08:07:44;31.83;;;21.33;;
13303;SDS011;6720;51.958;4.540;2022-11-21T08:10:09;32.57;;;21.57;;
13303;SDS011;6720;51.958;4.540;2022-11-21T08:12:35;40.20;;;23.23;;
13303;SDS011;6720;51.958;4.540;2022-11-21T08:15:00;35.40;;;21.43;;
13303;SDS011;6720;51.958;4.540;2022-11-21T08:17:26;31.43;;;20.93;;
13303;SDS011;6720;51.958;4.540;2022-11-21T08:19:51;31.17;;;20.90;;
13303;SDS011;6720;51.958;4.540;2022-11-21T08:22:17;29.57;;;20.63;;
13303;SDS011;6720;51.958;4.540;2022-11-21T08:24:42;32.30;;;20.43;;
13303;SDS011;6720;51.958;4.540;2022-11-21T08:27:07;32.10;;;20.40;;
13303;SDS011;6720;51.958;4.540;2022-11-21T08:29:33;29.53;;;20.07;;
13303;SDS011;6720;51.958;4.540;2022-11-21T08:31:58;30.33;;;19.97;;
13303;SDS011;6720;51.958;4.540;2022-11-21T08:34:23;30.87;;;20.63;;
13303;SDS011;6720;51.958;4.540;2022-11-21T08:36:49;34.67;;;20.43;;
13303;SDS011;6720;51.958;4.540;2022-11-21T08:39:14;31.07;;;20.67;;
13303;SDS011;6720;51.958;4.540;2022-11-21T08:41:39;26.57;;;18.80;;
13303;SDS011;6720;51.958;4.540;2022-11-21T08:44:23;21.97;;;16.67;;
13303;SDS011;6720;51.958;4.540;2022-11-21T08:46:49;19.00;;;14.87;;
13303;SDS011;6720;51.958;4.540;2022-11-21T08:49:14;19.03;;;14.20;;
13303;SDS011;6720;51.958;4.540;2022-11-21T08:51:39;22.23;;;15.93;;
13303;SDS011;6720;51.958;4.540;2022-11-21T08:54:05;21.17;;;14.53;;
13303;SDS011;6720;51.958;4.540;2022-11-21T08:56:31;20.83;;;12.97;;
13303;SDS011;6720;51.958;4.540;2022-11-21T08:58:56;16.97;;;10.43;;
13303;SDS011;6720;51.958;4.540;2022-11-21T09:01:22;20.07;;;11.53;;
13303;SDS011;6720;51.958;4.540;2022-11-21T09:03:47;14.57;;;8.03;;
13303;SDS011;6720;51.958;4.540;2022-11-21T09:06:13;14.97;;;8.70;;
13303;SDS011;6720;51.958;4.540;2022-11-21T09:08:39;12.83;;;7.37;;
13303;SDS011;6720;51.958;4.540;2022-11-21T09:11:06;11.73;;;6.93;;
13303;SDS011;6720;51.958;4.540;2022-11-21T09:13:32;13.27;;;7.17;;
13303;SDS011;6720;51.958;4.540;2022-11-21T09:15:58;8.63;;;6.50;;
13303;SDS011;6720;51.958;4.540;2022-11-21T09:18:43;9.33;;;5.60;;
13303;SDS011;6720;51.958;4.540;2022-11-21T09:21:12;13.67;;;5.77;;
13303;SDS011;6720;51.958;4.540;2022-11-21T09:23:39;8.97;;;5.37;;
13303;SDS011;6720;51.958;4.540;2022-11-21T09:26:04;9.20;;;5.57;;
13303;SDS011;6720;51.958;4.540;2022-11-21T09:28:30;11.93;;;4.70;;
13303;SDS011;6720;51.958;4.540;2022-11-21T09:30:55;8.03;;;4.97;;
13303;SDS011;6720;51.958;4.540;2022-11-21T09:33:20;8.23;;;5.03;;
13303;SDS011;6720;51.958;4.540;2022-11-21T09:35:46;8.73;;;4.70;;
13303;SDS011;6720;51.958;4.540;2022-11-21T09:38:11;7.70;;;4.53;;
13303;SDS011;6720;51.958;4.540;2022-11-21T09:40:37;9.17;;;5.00;;
13303;SDS011;6720;51.958;4.540;2022-11-21T09:45:58;7.87;;;5.33;;
13303;SDS011;6720;51.958;4.540;2022-11-21T09:48:27;6.37;;;5.07;;
13303;SDS011;6720;51.958;4.540;2022-11-21T09:50:59;11.07;;;5.80;;
13303;SDS011;6720;51.958;4.540;2022-11-21T09:56:00;10.87;;;5.83;;
13303;SDS011;6720;51.958;4.540;2022-11-21T09:58:35;8.30;;;5.50;;
13303;SDS011;6720;51.958;4.540;2022-11-21T10:01:04;10.90;;;6.47;;
13303;SDS011;6720;51.958;4.540;2022-11-21T10:03:35;13.20;;;6.80;;
13303;SDS011;6720;51.958;4.540;2022-11-21T10:16:48;9.97;;;6.57;;
13303;SDS011;6720;51.958;4.540;2022-11-21T10:22:30;11.57;;;6.77;;
13303;SDS011;6720;51.958;4.540;2022-11-21T10:25:14;13.53;;;7.13;;
13303;SDS011;6720;51.958;4.540;2022-11-21T10:27:51;13.10;;;7.47;;
13303;SDS011;6720;51.958;4.540;2022-11-21T10:30:23;12.70;;;6.90;;
13303;SDS011;6720;51.958;4.540;2022-11-21T10:32:52;12.13;;;7.70;;
13303;SDS011;6720;51.958;4.540;2022-11-21T10:35:28;11.03;;;6.93;;
13303;SDS011;6720;51.958;4.540;2022-11-21T10:38:01;11.80;;;7.33;;
13303;SDS011;6720;51.958;4.540;2022-11-21T10:40:39;13.53;;;7.77;;
13303;SDS011;6720;51.958;4.540;2022-11-21T10:43:11;10.87;;;7.33;;
13303;SDS011;6720;51.958;4.540;2022-11-21T10:46:16;16.27;;;8.47;;
13303;SDS011;6720;51.958;4.540;2022-11-21T10:48:41;11.33;;;7.13;;
13303;SDS011;6720;51.958;4.540;2022-11-21T10:54:08;13.73;;;7.50;;
13303;SDS011;6720;51.958;4.540;2022-11-21T10:56:55;13.20;;;8.07;;
13303;SDS011;6720;51.958;4.540;2022-11-21T10:59:36;14.97;;;8.20;;
13303;SDS011;6720;51.958;4.540;2022-11-21T11:02:23;14.20;;;7.80;;
13303;SDS011;6720;51.958;4.540;2022-11-21T11:04:48;13.37;;;7.57;;
13303;SDS011;6720;51.958;4.540;2022-11-21T11:07:39;14.20;;;8.63;;
13303;SDS011;6720;51.958;4.540;2022-11-21T11:10:20;14.33;;;9.20;;
13303;SDS011;6720;51.958;4.540;2022-11-21T11:12:47;14.13;;;8.93;;
13303;SDS011;6720;51.958;4.540;2022-11-21T11:15:32;14.87;;;8.80;;
13303;SDS011;6720;51.958;4.540;2022-11-21T11:17:59;15.40;;;8.47;;
13303;SDS011;6720;51.958;4.540;2022-11-21T11:23:16;16.10;;;8.20;;
13303;SDS011;6720;51.958;4.540;2022-11-21T11:28:17;13.03;;;7.37;;
13303;SDS011;6720;51.958;4.540;2022-11-21T11:30:48;10.27;;;7.40;;
13303;SDS011;6720;51.958;4.540;2022-11-21T11:35:58;12.53;;;6.50;;
13303;SDS011;6720;51.958;4.540;2022-11-21T11:38:35;14.23;;;5.87;;
13303;SDS011;6720;51.958;4.540;2022-11-21T11:41:03;11.13;;;5.27;;
13303;SDS011;6720;51.958;4.540;2022-11-21T11:49:35;9.00;;;4.73;;
13303;SDS011;6720;51.958;4.540;2022-11-21T11:52:26;8.07;;;5.33;;
13303;SDS011;6720;51.958;4.540;2022-11-21T11:54:57;9.53;;;5.10;;
13303;SDS011;6720;51.958;4.540;2022-11-21T11:57:27;9.90;;;5.40;;
13303;SDS011;6720;51.958;4.540;2022-11-21T12:00:03;7.80;;;4.87;;
13303;SDS011;6720;51.958;4.540;2022-11-21T12:05:25;9.53;;;4.87;;
13303;SDS011;6720;51.958;4.540;2022-11-21T12:08:01;9.83;;;4.57;;
13303;SDS011;6720;51.958;4.540;2022-11-21T12:10:40;11.07;;;5.00;;
13303;SDS011;6720;51.958;4.540;2022-11-21T12:13:30;6.83;;;4.20;;
13303;SDS011;6720;51.958;4.540;2022-11-21T12:15:58;8.20;;;4.60;;
13303;SDS011;6720;51.958;4.540;2022-11-21T12:23:49;8.23;;;4.63;;
13303;SDS011;6720;51.958;4.540;2022-11-21T12:32:00;7.70;;;5.23;;
13303;SDS011;6720;51.958;4.540;2022-11-21T12:55:08;11.50;;;5.20;;
13303;SDS011;6720;51.958;4.540;2022-11-21T12:58:08;9.77;;;5.43;;
13303;SDS011;6720;51.958;4.540;2022-11-21T13:07:08;9.47;;;5.47;;
13303;SDS011;6720;51.958;4.540;2022-11-21T13:09:39;9.00;;;4.63;;
13303;SDS011;6720;51.958;4.540;2022-11-21T13:14:55;15.73;;;5.43;;
13303;SDS011;6720;51.958;4.540;2022-11-21T13:17:48;10.10;;;4.37;;
13303;SDS011;6720;51.958;4.540;2022-11-21T13:20:36;8.63;;;4.10;;
13303;SDS011;6720;51.958;4.540;2022-11-21T13:23:43;8.20;;;4.60;;
13303;SDS011;6720;51.958;4.540;2022-11-21T13:31:40;12.47;;;5.80;;
13303;SDS011;6720;51.958;4.540;2022-11-21T13:36:59;8.17;;;3.30;;
13303;SDS011;6720;51.958;4.540;2022-11-21T13:39:25;6.40;;;3.93;;
13303;SDS011;6720;51.958;4.540;2022-11-21T13:44:44;9.67;;;4.07;;
13303;SDS011;6720;51.958;4.540;2022-11-21T14:07:19;10.60;;;4.10;;
13303;SDS011;6720;51.958;4.540;2022-11-21T14:09:48;7.97;;;3.97;;
13303;SDS011;6720;51.958;4.540;2022-11-21T14:14:52;5.30;;;3.30;;
13303;SDS011;6720;51.958;4.540;2022-11-21T14:20:06;8.70;;;4.23;;
13303;SDS011;6720;51.958;4.540;2022-11-21T14:25:35;8.80;;;3.73;;
13303;SDS011;6720;51.958;4.540;2022-11-21T14:30:56;9.57;;;3.53;;
13303;SDS011;6720;51.958;4.540;2022-11-21T14:33:36;9.63;;;3.73;;
13303;SDS011;6720;51.958;4.540;2022-11-21T14:36:07;7.77;;;3.97;;
13303;SDS011;6720;51.958;4.540;2022-11-21T14:38:41;9.73;;;3.60;;
13303;SDS011;6720;51.958;4.540;2022-11-21T14:46:24;7.60;;;3.97;;
13303;SDS011;6720;51.958;4.540;2022-11-21T14:48:51;12.50;;;4.43;;
13303;SDS011;6720;51.958;4.540;2022-11-21T14:51:18;8.37;;;4.70;;
13303;SDS011;6720;51.958;4.540;2022-11-21T14:53:45;8.63;;;4.30;;
13303;SDS011;6720;51.958;4.540;2022-11-21T14:56:19;11.47;;;4.70;;
13303;SDS011;6720;51.958;4.540;2022-11-21T14:58:47;11.93;;;4.17;;
13303;SDS011;6720;51.958;4.540;2022-11-21T15:01:29;8.93;;;4.53;;
13303;SDS011;6720;51.958;4.540;2022-11-21T15:04:00;10.80;;;4.80;;
13303;SDS011;6720;51.958;4.540;2022-11-21T15:06:27;9.90;;;4.67;;
13303;SDS011;6720;51.958;4.540;2022-11-21T15:09:00;9.47;;;4.40;;
13303;SDS011;6720;51.958;4.540;2022-11-21T15:11:33;13.77;;;5.77;;
13303;SDS011;6720;51.958;4.540;2022-11-21T15:14:04;7.43;;;4.30;;
13303;SDS011;6720;51.958;4.540;2022-11-21T15:16:40;7.30;;;4.93;;
13303;SDS011;6720;51.958;4.540;2022-11-21T15:19:09;11.70;;;5.37;;
13303;SDS011;6720;51.958;4.540;2022-11-21T15:21:35;10.00;;;5.33;;
13303;SDS011;6720;51.958;4.540;2022-11-21T15:24:14;8.43;;;5.37;;
13303;SDS011;6720;51.958;4.540;2022-11-21T15:26:43;12.77;;;5.30;;
13303;SDS011;6720;51.958;4.540;2022-11-21T15:29:16;7.97;;;5.33;;
13303;SDS011;6720;51.958;4.540;2022-11-21T15:31:44;13.67;;;5.57;;
13303;SDS011;6720;51.958;4.540;2022-11-21T15:34:09;10.93;;;7.30;;
13303;SDS011;6720;51.958;4.540;2022-11-21T15:36:34;9.77;;;5.87;;
13303;SDS011;6720;51.958;4.540;2022-11-21T15:41:29;8.87;;;5.70;;
13303;SDS011;6720;51.958;4.540;2022-11-21T15:46:27;8.70;;;5.17;;
13303;SDS011;6720;51.958;4.540;2022-11-21T15:48:54;18.87;;;7.10;;
13303;SDS011;6720;51.958;4.540;2022-11-21T15:51:35;10.87;;;5.60;;
13303;SDS011;6720;51.958;4.540;2022-11-21T15:54:05;10.10;;;5.53;;
13303;SDS011;6720;51.958;4.540;2022-11-21T15:56:32;11.83;;;5.87;;
13303;SDS011;6720;51.958;4.540;2022-11-21T15:58:58;15.27;;;6.23;;
13303;SDS011;6720;51.958;4.540;2022-11-21T16:01:24;13.13;;;6.53;;
13303;SDS011;6720;51.958;4.540;2022-11-21T16:03:52;11.93;;;5.50;;
13303;SDS011;6720;51.958;4.540;2022-11-21T16:06:20;11.73;;;5.80;;
13303;SDS011;6720;51.958;4.540;2022-11-21T16:08:45;11.47;;;5.63;;
13303;SDS011;6720;51.958;4.540;2022-11-21T16:11:16;11.97;;;6.00;;
13303;SDS011;6720;51.958;4.540;2022-11-21T16:13:48;12.27;;;6.27;;
13303;SDS011;6720;51.958;4.540;2022-11-21T16:16:14;12.67;;;6.97;;
13303;SDS011;6720;51.958;4.540;2022-11-21T16:18:40;14.43;;;6.70;;
13303;SDS011;6720;51.958;4.540;2022-11-21T16:21:06;12.30;;;6.57;;
13303;SDS011;6720;51.958;4.540;2022-11-21T16:23:32;13.57;;;6.70;;
13303;SDS011;6720;51.958;4.540;2022-11-21T16:25:58;9.67;;;6.70;;
13303;SDS011;6720;51.958;4.540;2022-11-21T16:28:23;13.00;;;6.57;;
13303;SDS011;6720;51.958;4.540;2022-11-21T16:30:49;13.53;;;6.93;;
13303;SDS011;6720;51.958;4.540;2022-11-21T16:33:14;12.50;;;6.63;;
13303;SDS011;6720;51.958;4.540;2022-11-21T16:35:39;13.33;;;7.43;;
13303;SDS011;6720;51.958;4.540;2022-11-21T16:38:08;15.03;;;7.80;;
13303;SDS011;6720;51.958;4.540;2022-11-21T16:40:34;11.77;;;7.37;;
13303;SDS011;6720;51.958;4.540;2022-11-21T16:43:06;15.20;;;7.37;;
13303;SDS011;6720;51.958;4.540;2022-11-21T16:45:33;14.87;;;7.53;;
13303;SDS011;6720;51.958;4.540;2022-11-21T16:47:58;11.30;;;6.10;;
13303;SDS011;6720;51.958;4.540;2022-11-21T16:50:24;8.00;;;6.10;;
13303;SDS011;6720;51.958;4.540;2022-11-21T16:52:49;19.83;;;9.53;;
13303;SDS011;6720;51.958;4.540;2022-11-21T16:55:15;13.33;;;7.20;;
13303;SDS011;6720;51.958;4.540;2022-11-21T16:57:40;11.43;;;7.30;;
13303;SDS011;6720;51.958;4.540;2022-11-21T17:00:07;12.60;;;7.67;;
13303;SDS011;6720;51.958;4.540;2022-11-21T17:02:36;17.73;;;9.27;;
13303;SDS011;6720;51.958;4.540;2022-11-21T17:05:02;14.10;;;7.03;;
13303;SDS011;6720;51.958;4.540;2022-11-21T17:07:29;13.00;;;6.67;;
13303;SDS011;6720;51.958;4.540;2022-11-21T17:09:55;10.77;;;6.43;;
13303;SDS011;6720;51.958;4.540;2022-11-21T17:12:20;11.10;;;6.50;;